sensor_id;sensor_type;location;lat;lon;timestamp;pressure;altitude;pressure_sealevel;temperature;humidity
48041;BME280;33815;48.386;11.738;2023-09-18T00:00:13;96196.69;;;14.45;100.00
48041;BME280;33815;48.386;11.738;2023-09-18T00:02:38;96207.03;;;14.46;100.00
48041;BME280;33815;48.386;11.738;2023-09-18T00:05:04;96189.97;;;14.35;100.00
48041;BME280;33815;48.386;11.738;2023-09-18T00:07:30;96204.41;;;14.46;100.00
48041;BME280;33815;48.386;11.738;2023-09-18T00:09:55;96177.84;;;14.34;100.00
48041;BME280;33815;48.386;11.738;2023-09-18T00:12:20;96161.41;;;14.26;100.00
48041;BME280;33815;48.386;11.738;2023-09-18T00:14:49;96188.84;;;14.45;100.00
48041;BME280;33815;48.386;11.738;2023-09-18T00:17:15;96195.09;;;14.44;100.00
48041;BME280;33815;48.386;11.738;2023-09-18T00:19:41;96175.59;;;14.31;100.00
48041;BME280;33815;48.386;11.738;2023-09-18T00:22:07;96162.03;;;14.28;100.00
48041;BME280;33815;48.386;11.738;2023-09-18T00:24:33;96158.78;;;14.26;100.00
48041;BME280;33815;48.386;11.738;2023-09-18T00:26:58;96171.16;;;14.32;100.00
48041;BME280;33815;48.386;11.738;2023-09-18T00:29:24;96169.69;;;14.29;100.00
48041;BME280;33815;48.386;11.738;2023-09-18T00:31:49;96166.28;;;14.29;100.00
48041;BME280;33815;48.386;11.738;2023-09-18T00:34:14;96154.91;;;14.21;100.00
48041;BME280;33815;48.386;11.738;2023-09-18T00:36:40;96142.38;;;14.17;100.00
48041;BME280;33815;48.386;11.738;2023-09-18T00:39:05;96160.63;;;14.25;100.00
48041;BME280;33815;48.386;11.738;2023-09-18T00:41:30;96153.28;;;14.20;100.00
48041;BME280;33815;48.386;11.738;2023-09-18T00:43:55;96141.81;;;14.21;100.00
48041;BME280;33815;48.386;11.738;2023-09-18T00:46:21;96133.44;;;14.11;100.00
48041;BME280;33815;48.386;11.738;2023-09-18T00:48:48;96142.00;;;14.20;100.00
48041;BME280;33815;48.386;11.738;2023-09-18T00:51:13;96129.00;;;14.12;100.00
48041;BME280;33815;48.386;11.738;2023-09-18T00:53:43;96131.41;;;14.13;100.00
48041;BME280;33815;48.386;11.738;2023-09-18T00:56:10;96138.28;;;14.14;100.00
48041;BME280;33815;48.386;11.738;2023-09-18T00:58:36;96133.59;;;14.10;100.00
48041;BME280;33815;48.386;11.738;2023-09-18T01:01:03;96121.59;;;14.00;100.00
48041;BME280;33815;48.386;11.738;2023-09-18T01:03:29;96107.84;;;13.98;100.00
48041;BME280;33815;48.386;11.738;2023-09-18T01:05:54;96128.72;;;14.07;100.00
48041;BME280;33815;48.386;11.738;2023-09-18T01:08:20;96126.66;;;14.02;100.00
48041;BME280;33815;48.386;11.738;2023-09-18T01:11:04;96124.03;;;14.02;100.00
48041;BME280;33815;48.386;11.738;2023-09-18T01:13:38;96120.81;;;14.00;100.00
48041;BME280;33815;48.386;11.738;2023-09-18T01:16:22;96115.09;;;13.96;100.00
48041;BME280;33815;48.386;11.738;2023-09-18T01:18:50;96117.72;;;13.96;100.00
48041;BME280;33815;48.386;11.738;2023-09-18T01:21:16;96105.78;;;13.94;100.00
48041;BME280;33815;48.386;11.738;2023-09-18T01:23:41;96087.91;;;13.82;100.00
48041;BME280;33815;48.386;11.738;2023-09-18T01:26:07;96108.97;;;13.89;100.00
48041;BME280;33815;48.386;11.738;2023-09-18T01:28:33;96117.00;;;13.87;100.00
48041;BME280;33815;48.386;11.738;2023-09-18T01:30:58;96111.13;;;13.85;100.00
48041;BME280;33815;48.386;11.738;2023-09-18T01:33:24;96108.06;;;13.82;100.00
48041;BME280;33815;48.386;11.738;2023-09-18T01:35:51;96085.78;;;13.71;100.00
48041;BME280;33815;48.386;11.738;2023-09-18T01:38:21;96092.28;;;13.75;100.00
48041;BME280;33815;48.386;11.738;2023-09-18T01:40:47;96097.13;;;13.78;100.00
48041;BME280;33815;48.386;11.738;2023-09-18T01:43:13;96081.69;;;13.68;100.00
48041;BME280;33815;48.386;11.738;2023-09-18T01:45:38;96105.38;;;13.75;100.00
48041;BME280;33815;48.386;11.738;2023-09-18T01:48:05;96091.00;;;13.71;100.00
48041;BME280;33815;48.386;11.738;2023-09-18T01:50:31;96110.13;;;13.71;100.00
48041;BME280;33815;48.386;11.738;2023-09-18T01:52:58;96103.81;;;13.66;100.00
48041;BME280;33815;48.386;11.738;2023-09-18T01:55:23;96110.88;;;13.65;100.00
48041;BME280;33815;48.386;11.738;2023-09-18T01:57:49;96122.69;;;13.61;100.00
48041;BME280;33815;48.386;11.738;2023-09-18T02:00:14;96110.50;;;13.53;100.00
48041;BME280;33815;48.386;11.738;2023-09-18T02:02:40;96111.31;;;13.54;100.00
48041;BME280;33815;48.386;11.738;2023-09-18T02:05:05;96090.66;;;13.44;100.00
48041;BME280;33815;48.386;11.738;2023-09-18T02:07:31;96090.94;;;13.49;100.00
48041;BME280;33815;48.386;11.738;2023-09-18T02:09:57;96079.81;;;13.47;100.00
48041;BME280;33815;48.386;11.738;2023-09-18T02:12:22;96064.47;;;13.44;100.00
48041;BME280;33815;48.386;11.738;2023-09-18T02:14:47;96073.22;;;13.51;100.00
48041;BME280;33815;48.386;11.738;2023-09-18T02:17:12;96078.81;;;13.48;100.00
48041;BME280;33815;48.386;11.738;2023-09-18T02:19:38;96086.69;;;13.48;100.00
48041;BME280;33815;48.386;11.738;2023-09-18T02:22:03;96087.47;;;13.49;100.00
48041;BME280;33815;48.386;11.738;2023-09-18T02:24:29;96087.06;;;13.45;100.00
48041;BME280;33815;48.386;11.738;2023-09-18T02:26:54;96077.94;;;13.41;100.00
48041;BME280;33815;48.386;11.738;2023-09-18T02:29:19;96082.34;;;13.41;100.00
48041;BME280;33815;48.386;11.738;2023-09-18T02:31:44;96077.34;;;13.31;100.00
48041;BME280;33815;48.386;11.738;2023-09-18T02:34:10;96082.09;;;13.35;100.00
48041;BME280;33815;48.386;11.738;2023-09-18T02:36:35;96066.25;;;13.29;100.00
48041;BME280;33815;48.386;11.738;2023-09-18T02:39:00;96066.19;;;13.37;100.00
48041;BME280;33815;48.386;11.738;2023-09-18T02:41:26;96068.81;;;13.37;100.00
48041;BME280;33815;48.386;11.738;2023-09-18T02:43:51;96054.25;;;13.34;100.00
48041;BME280;33815;48.386;11.738;2023-09-18T02:46:16;96059.59;;;13.41;100.00
48041;BME280;33815;48.386;11.738;2023-09-18T02:48:42;96042.97;;;13.34;100.00
48041;BME280;33815;48.386;11.738;2023-09-18T02:51:07;96047.22;;;13.50;100.00
48041;BME280;33815;48.386;11.738;2023-09-18T02:53:33;96037.75;;;13.49;100.00
48041;BME280;33815;48.386;11.738;2023-09-18T02:55:59;96035.59;;;13.52;100.00
48041;BME280;33815;48.386;11.738;2023-09-18T02:58:25;96041.25;;;13.56;100.00
48041;BME280;33815;48.386;11.738;2023-09-18T03:00:52;96025.53;;;13.56;100.00
48041;BME280;33815;48.386;11.738;2023-09-18T03:03:18;96030.88;;;13.63;100.00
48041;BME280;33815;48.386;11.738;2023-09-18T03:05:44;96037.81;;;13.70;100.00
48041;BME280;33815;48.386;11.738;2023-09-18T03:08:10;96030.50;;;13.66;100.00
48041;BME280;33815;48.386;11.738;2023-09-18T03:10:37;96018.25;;;13.66;100.00
48041;BME280;33815;48.386;11.738;2023-09-18T03:13:03;96024.75;;;13.70;100.00
48041;BME280;33815;48.386;11.738;2023-09-18T03:15:30;96030.13;;;13.69;100.00
48041;BME280;33815;48.386;11.738;2023-09-18T03:17:56;96034.38;;;13.70;100.00
48041;BME280;33815;48.386;11.738;2023-09-18T03:20:22;96052.34;;;13.73;100.00
48041;BME280;33815;48.386;11.738;2023-09-18T03:22:49;96043.97;;;13.63;100.00
48041;BME280;33815;48.386;11.738;2023-09-18T03:25:14;96029.34;;;13.53;100.00
48041;BME280;33815;48.386;11.738;2023-09-18T03:27:40;96025.13;;;13.52;100.00
48041;BME280;33815;48.386;11.738;2023-09-18T03:30:05;96026.72;;;13.53;100.00
48041;BME280;33815;48.386;11.738;2023-09-18T03:32:32;96021.06;;;13.50;100.00
48041;BME280;33815;48.386;11.738;2023-09-18T03:34:57;96016.53;;;13.44;100.00
48041;BME280;33815;48.386;11.738;2023-09-18T03:37:22;95994.88;;;13.35;100.00
48041;BME280;33815;48.386;11.738;2023-09-18T03:39:47;96011.94;;;13.46;100.00
48041;BME280;33815;48.386;11.738;2023-09-18T03:42:13;96011.22;;;13.37;100.00
48041;BME280;33815;48.386;11.738;2023-09-18T03:44:38;96021.75;;;13.44;100.00
48041;BME280;33815;48.386;11.738;2023-09-18T03:47:03;96010.41;;;13.36;100.00
48041;BME280;33815;48.386;11.738;2023-09-18T03:49:29;96002.72;;;13.35;100.00
48041;BME280;33815;48.386;11.738;2023-09-18T03:51:54;95990.53;;;13.27;100.00
48041;BME280;33815;48.386;11.738;2023-09-18T03:54:19;95983.50;;;13.28;100.00
48041;BME280;33815;48.386;11.738;2023-09-18T03:56:45;95982.31;;;13.30;100.00
48041;BME280;33815;48.386;11.738;2023-09-18T03:59:11;95994.75;;;13.28;100.00
48041;BME280;33815;48.386;11.738;2023-09-18T04:01:37;95991.44;;;13.34;100.00
48041;BME280;33815;48.386;11.738;2023-09-18T04:04:02;95977.53;;;13.34;100.00
48041;BME280;33815;48.386;11.738;2023-09-18T04:06:37;95988.38;;;13.46;100.00
48041;BME280;33815;48.386;11.738;2023-09-18T04:09:03;95980.16;;;13.34;100.00
48041;BME280;33815;48.386;11.738;2023-09-18T04:11:28;95975.25;;;13.31;100.00
48041;BME280;33815;48.386;11.738;2023-09-18T04:13:57;95960.31;;;13.25;100.00
48041;BME280;33815;48.386;11.738;2023-09-18T04:16:22;95973.28;;;13.33;100.00
48041;BME280;33815;48.386;11.738;2023-09-18T04:18:47;95955.63;;;13.35;100.00
48041;BME280;33815;48.386;11.738;2023-09-18T04:21:12;95942.00;;;13.25;100.00
48041;BME280;33815;48.386;11.738;2023-09-18T04:23:38;95943.97;;;13.23;100.00
48041;BME280;33815;48.386;11.738;2023-09-18T04:26:03;95948.56;;;13.20;100.00
48041;BME280;33815;48.386;11.738;2023-09-18T04:28:28;95945.88;;;13.14;100.00
48041;BME280;33815;48.386;11.738;2023-09-18T04:30:54;95958.44;;;13.18;100.00
48041;BME280;33815;48.386;11.738;2023-09-18T04:33:19;95954.88;;;13.11;100.00
48041;BME280;33815;48.386;11.738;2023-09-18T04:35:46;95941.47;;;12.99;100.00
48041;BME280;33815;48.386;11.738;2023-09-18T04:38:11;95956.09;;;13.09;100.00
48041;BME280;33815;48.386;11.738;2023-09-18T04:40:37;95953.47;;;13.09;100.00
48041;BME280;33815;48.386;11.738;2023-09-18T04:43:02;95942.44;;;13.13;100.00
48041;BME280;33815;48.386;11.738;2023-09-18T04:45:31;95945.78;;;13.22;100.00
48041;BME280;33815;48.386;11.738;2023-09-18T04:47:57;95934.59;;;13.13;100.00
48041;BME280;33815;48.386;11.738;2023-09-18T04:50:22;95941.72;;;13.19;100.00
48041;BME280;33815;48.386;11.738;2023-09-18T04:52:48;95927.66;;;13.06;100.00
48041;BME280;33815;48.386;11.738;2023-09-18T04:55:15;95954.97;;;13.18;100.00
48041;BME280;33815;48.386;11.738;2023-09-18T04:57:41;95944.19;;;13.06;100.00
48041;BME280;33815;48.386;11.738;2023-09-18T05:00:06;95948.41;;;13.07;100.00
48041;BME280;33815;48.386;11.738;2023-09-18T05:02:38;95950.03;;;13.08;100.00
48041;BME280;33815;48.386;11.738;2023-09-18T05:05:03;95942.25;;;13.00;100.00
48041;BME280;33815;48.386;11.738;2023-09-18T05:07:29;95922.88;;;12.94;100.00
48041;BME280;33815;48.386;11.738;2023-09-18T05:09:54;95949.94;;;13.01;100.00
48041;BME280;33815;48.386;11.738;2023-09-18T05:12:19;95944.88;;;13.00;100.00
48041;BME280;33815;48.386;11.738;2023-09-18T05:14:45;95940.47;;;13.00;100.00
48041;BME280;33815;48.386;11.738;2023-09-18T05:17:13;95945.16;;;13.05;100.00
48041;BME280;33815;48.386;11.738;2023-09-18T05:19:39;95948.16;;;13.02;100.00
48041;BME280;33815;48.386;11.738;2023-09-18T05:22:05;95945.91;;;12.99;100.00
48041;BME280;33815;48.386;11.738;2023-09-18T05:24:30;95955.44;;;13.07;100.00
48041;BME280;33815;48.386;11.738;2023-09-18T05:26:55;95953.47;;;13.09;100.00
48041;BME280;33815;48.386;11.738;2023-09-18T05:29:21;95958.06;;;13.22;100.00
48041;BME280;33815;48.386;11.738;2023-09-18T05:31:46;95971.19;;;13.28;100.00
48041;BME280;33815;48.386;11.738;2023-09-18T05:34:12;95966.44;;;13.32;100.00
48041;BME280;33815;48.386;11.738;2023-09-18T05:36:37;95972.41;;;13.41;100.00
48041;BME280;33815;48.386;11.738;2023-09-18T05:39:03;95975.28;;;13.46;100.00
48041;BME280;33815;48.386;11.738;2023-09-18T05:41:28;95961.75;;;13.42;100.00
48041;BME280;33815;48.386;11.738;2023-09-18T05:43:55;95964.25;;;13.50;100.00
48041;BME280;33815;48.386;11.738;2023-09-18T05:46:20;95958.84;;;13.52;100.00
48041;BME280;33815;48.386;11.738;2023-09-18T05:48:46;95950.44;;;13.57;100.00
48041;BME280;33815;48.386;11.738;2023-09-18T05:51:11;95947.34;;;13.68;100.00
48041;BME280;33815;48.386;11.738;2023-09-18T05:53:36;95953.34;;;13.83;100.00
48041;BME280;33815;48.386;11.738;2023-09-18T05:56:03;95941.88;;;13.84;100.00
48041;BME280;33815;48.386;11.738;2023-09-18T05:58:30;95952.66;;;13.96;100.00
48041;BME280;33815;48.386;11.738;2023-09-18T06:01:00;95962.06;;;14.12;100.00
48041;BME280;33815;48.386;11.738;2023-09-18T06:03:28;95961.56;;;14.23;100.00
48041;BME280;33815;48.386;11.738;2023-09-18T06:05:55;95964.13;;;14.38;100.00
48041;BME280;33815;48.386;11.738;2023-09-18T06:08:21;95965.28;;;14.57;100.00
48041;BME280;33815;48.386;11.738;2023-09-18T06:10:47;95947.69;;;14.73;100.00
48041;BME280;33815;48.386;11.738;2023-09-18T06:13:12;95944.56;;;14.91;100.00
48041;BME280;33815;48.386;11.738;2023-09-18T06:15:38;95954.16;;;15.12;100.00
48041;BME280;33815;48.386;11.738;2023-09-18T06:18:03;95945.09;;;15.21;100.00
48041;BME280;33815;48.386;11.738;2023-09-18T06:20:28;95943.16;;;15.37;100.00
48041;BME280;33815;48.386;11.738;2023-09-18T06:22:54;95948.47;;;15.50;100.00
48041;BME280;33815;48.386;11.738;2023-09-18T06:25:19;95941.44;;;15.64;100.00
48041;BME280;33815;48.386;11.738;2023-09-18T06:27:45;95953.59;;;15.79;100.00
48041;BME280;33815;48.386;11.738;2023-09-18T06:30:11;95933.22;;;15.87;100.00
48041;BME280;33815;48.386;11.738;2023-09-18T06:32:36;95929.63;;;15.95;100.00
48041;BME280;33815;48.386;11.738;2023-09-18T06:35:02;95929.63;;;16.08;100.00
48041;BME280;33815;48.386;11.738;2023-09-18T06:37:27;95926.78;;;16.10;100.00
48041;BME280;33815;48.386;11.738;2023-09-18T06:39:53;95922.56;;;16.09;100.00
48041;BME280;33815;48.386;11.738;2023-09-18T06:42:18;95921.72;;;16.02;100.00
48041;BME280;33815;48.386;11.738;2023-09-18T06:44:44;95920.31;;;15.92;100.00
48041;BME280;33815;48.386;11.738;2023-09-18T06:47:09;95932.25;;;15.95;100.00
48041;BME280;33815;48.386;11.738;2023-09-18T06:49:35;95938.53;;;16.01;100.00
48041;BME280;33815;48.386;11.738;2023-09-18T06:52:00;95970.25;;;16.06;100.00
48041;BME280;33815;48.386;11.738;2023-09-18T06:54:25;95947.22;;;16.08;100.00
48041;BME280;33815;48.386;11.738;2023-09-18T06:56:50;95959.56;;;16.14;100.00
48041;BME280;33815;48.386;11.738;2023-09-18T06:59:16;95963.59;;;16.17;100.00
48041;BME280;33815;48.386;11.738;2023-09-18T07:01:41;95960.78;;;16.25;100.00
48041;BME280;33815;48.386;11.738;2023-09-18T07:04:07;95961.22;;;16.29;100.00
48041;BME280;33815;48.386;11.738;2023-09-18T07:06:32;95972.13;;;16.39;100.00
48041;BME280;33815;48.386;11.738;2023-09-18T07:08:58;95972.91;;;16.33;100.00
48041;BME280;33815;48.386;11.738;2023-09-18T07:11:24;95981.84;;;16.32;100.00
48041;BME280;33815;48.386;11.738;2023-09-18T07:13:50;95982.41;;;16.27;100.00
48041;BME280;33815;48.386;11.738;2023-09-18T07:16:15;95989.31;;;16.35;100.00
48041;BME280;33815;48.386;11.738;2023-09-18T07:18:40;95992.75;;;16.69;100.00
48041;BME280;33815;48.386;11.738;2023-09-18T07:21:06;95966.44;;;16.82;100.00
48041;BME280;33815;48.386;11.738;2023-09-18T07:23:31;95991.50;;;17.18;100.00
48041;BME280;33815;48.386;11.738;2023-09-18T07:25:57;96005.63;;;17.51;100.00
48041;BME280;33815;48.386;11.738;2023-09-18T07:28:25;96008.75;;;17.73;100.00
48041;BME280;33815;48.386;11.738;2023-09-18T07:30:50;95996.75;;;17.84;100.00
48041;BME280;33815;48.386;11.738;2023-09-18T07:33:16;96007.66;;;17.94;100.00
48041;BME280;33815;48.386;11.738;2023-09-18T07:35:46;96016.69;;;18.18;100.00
48041;BME280;33815;48.386;11.738;2023-09-18T07:38:12;96006.47;;;18.28;100.00
48041;BME280;33815;48.386;11.738;2023-09-18T07:40:37;96011.09;;;18.65;100.00
48041;BME280;33815;48.386;11.738;2023-09-18T07:43:02;96008.69;;;18.82;100.00
48041;BME280;33815;48.386;11.738;2023-09-18T07:45:28;95991.06;;;19.08;100.00
48041;BME280;33815;48.386;11.738;2023-09-18T07:47:53;96001.69;;;19.38;100.00
48041;BME280;33815;48.386;11.738;2023-09-18T07:50:18;96007.94;;;19.44;100.00
48041;BME280;33815;48.386;11.738;2023-09-18T07:52:44;96004.78;;;19.54;100.00
48041;BME280;33815;48.386;11.738;2023-09-18T07:55:09;96001.69;;;19.57;100.00
48041;BME280;33815;48.386;11.738;2023-09-18T07:57:35;95985.75;;;19.63;100.00
48041;BME280;33815;48.386;11.738;2023-09-18T08:00:01;96008.00;;;19.74;100.00
48041;BME280;33815;48.386;11.738;2023-09-18T08:02:33;95999.13;;;19.68;100.00
48041;BME280;33815;48.386;11.738;2023-09-18T08:05:00;95989.84;;;19.96;100.00
48041;BME280;33815;48.386;11.738;2023-09-18T08:07:25;95995.59;;;19.93;100.00
48041;BME280;33815;48.386;11.738;2023-09-18T08:09:50;96000.75;;;19.88;100.00
48041;BME280;33815;48.386;11.738;2023-09-18T08:12:16;96008.28;;;19.84;100.00
48041;BME280;33815;48.386;11.738;2023-09-18T08:14:41;96006.22;;;20.05;100.00
48041;BME280;33815;48.386;11.738;2023-09-18T08:17:06;96012.38;;;20.29;100.00
48041;BME280;33815;48.386;11.738;2023-09-18T08:19:32;96006.53;;;20.39;100.00
48041;BME280;33815;48.386;11.738;2023-09-18T08:21:58;96012.34;;;20.60;100.00
48041;BME280;33815;48.386;11.738;2023-09-18T08:24:26;96010.66;;;20.77;100.00
48041;BME280;33815;48.386;11.738;2023-09-18T08:26:52;96016.53;;;20.91;100.00
48041;BME280;33815;48.386;11.738;2023-09-18T08:29:18;96021.63;;;21.04;100.00
48041;BME280;33815;48.386;11.738;2023-09-18T08:31:43;96034.66;;;21.30;100.00
48041;BME280;33815;48.386;11.738;2023-09-18T08:34:08;96026.31;;;21.50;100.00
48041;BME280;33815;48.386;11.738;2023-09-18T08:36:34;96016.47;;;21.74;100.00
48041;BME280;33815;48.386;11.738;2023-09-18T08:38:59;96020.81;;;21.92;96.89
48041;BME280;33815;48.386;11.738;2023-09-18T08:41:28;96030.31;;;22.17;99.57
48041;BME280;33815;48.386;11.738;2023-09-18T08:43:59;96038.03;;;22.18;97.96
48041;BME280;33815;48.386;11.738;2023-09-18T08:46:25;96042.38;;;22.24;96.51
48041;BME280;33815;48.386;11.738;2023-09-18T08:48:51;96044.81;;;22.55;95.03
48041;BME280;33815;48.386;11.738;2023-09-18T08:51:18;96036.84;;;22.55;95.75
48041;BME280;33815;48.386;11.738;2023-09-18T08:53:44;96046.84;;;22.82;96.43
48041;BME280;33815;48.386;11.738;2023-09-18T08:56:09;96053.03;;;22.87;93.49
48041;BME280;33815;48.386;11.738;2023-09-18T08:58:37;96038.06;;;22.81;90.95
48041;BME280;33815;48.386;11.738;2023-09-18T09:01:08;96044.75;;;22.84;89.31
48041;BME280;33815;48.386;11.738;2023-09-18T09:03:36;96047.09;;;22.97;87.83
48041;BME280;33815;48.386;11.738;2023-09-18T09:06:02;96049.34;;;22.88;93.75
48041;BME280;33815;48.386;11.738;2023-09-18T09:08:28;96056.94;;;23.14;91.63
48041;BME280;33815;48.386;11.738;2023-09-18T09:10:54;96046.41;;;23.41;86.18
48041;BME280;33815;48.386;11.738;2023-09-18T09:13:19;96050.53;;;23.71;84.20
48041;BME280;33815;48.386;11.738;2023-09-18T09:15:51;96049.22;;;23.90;83.76
48041;BME280;33815;48.386;11.738;2023-09-18T09:18:19;96058.00;;;24.13;81.40
48041;BME280;33815;48.386;11.738;2023-09-18T09:20:58;96053.56;;;24.24;81.42
48041;BME280;33815;48.386;11.738;2023-09-18T09:23:24;96049.06;;;24.02;78.62
48041;BME280;33815;48.386;11.738;2023-09-18T09:25:50;96057.31;;;24.01;78.40
48041;BME280;33815;48.386;11.738;2023-09-18T09:28:28;96042.88;;;23.97;80.28
48041;BME280;33815;48.386;11.738;2023-09-18T09:31:00;96063.56;;;23.89;85.31
48041;BME280;33815;48.386;11.738;2023-09-18T09:33:29;96063.69;;;24.00;81.59
48041;BME280;33815;48.386;11.738;2023-09-18T09:35:57;96053.47;;;23.91;79.78
48041;BME280;33815;48.386;11.738;2023-09-18T09:38:30;96063.00;;;24.09;81.37
48041;BME280;33815;48.386;11.738;2023-09-18T09:41:02;96060.34;;;24.09;80.81
48041;BME280;33815;48.386;11.738;2023-09-18T09:43:32;96047.63;;;24.17;82.84
48041;BME280;33815;48.386;11.738;2023-09-18T09:45:59;96061.16;;;24.10;85.77
48041;BME280;33815;48.386;11.738;2023-09-18T09:48:25;96053.47;;;24.14;81.67
48041;BME280;33815;48.386;11.738;2023-09-18T09:50:51;96059.91;;;24.18;83.23
48041;BME280;33815;48.386;11.738;2023-09-18T09:53:17;96051.91;;;24.18;84.29
48041;BME280;33815;48.386;11.738;2023-09-18T09:55:43;96057.09;;;24.29;81.78
48041;BME280;33815;48.386;11.738;2023-09-18T09:58:09;96073.56;;;24.26;80.88
48041;BME280;33815;48.386;11.738;2023-09-18T10:00:43;96073.28;;;24.01;81.23
48041;BME280;33815;48.386;11.738;2023-09-18T10:03:10;96073.53;;;23.99;81.88
48041;BME280;33815;48.386;11.738;2023-09-18T10:05:38;96056.84;;;23.87;82.53
48041;BME280;33815;48.386;11.738;2023-09-18T10:08:08;96078.88;;;23.82;82.75
48041;BME280;33815;48.386;11.738;2023-09-18T10:10:38;96088.34;;;23.73;80.50
48041;BME280;33815;48.386;11.738;2023-09-18T10:13:23;96093.13;;;23.71;81.38
48041;BME280;33815;48.386;11.738;2023-09-18T10:15:53;96074.53;;;23.76;81.56
48041;BME280;33815;48.386;11.738;2023-09-18T10:18:27;96081.53;;;23.99;81.79
48041;BME280;33815;48.386;11.738;2023-09-18T10:21:06;96089.44;;;24.16;80.04
48041;BME280;33815;48.386;11.738;2023-09-18T10:23:57;96077.78;;;24.22;82.92
48041;BME280;33815;48.386;11.738;2023-09-18T10:26:25;96095.88;;;24.48;83.33
48041;BME280;33815;48.386;11.738;2023-09-18T10:28:55;96077.56;;;24.51;82.56
48041;BME280;33815;48.386;11.738;2023-09-18T10:31:25;96088.00;;;24.58;79.65
48041;BME280;33815;48.386;11.738;2023-09-18T10:33:52;96080.84;;;24.36;78.96
48041;BME280;33815;48.386;11.738;2023-09-18T10:36:19;96098.19;;;24.61;81.28
48041;BME280;33815;48.386;11.738;2023-09-18T10:38:46;96097.22;;;24.72;77.79
48041;BME280;33815;48.386;11.738;2023-09-18T10:41:16;96101.19;;;24.70;77.77
48041;BME280;33815;48.386;11.738;2023-09-18T10:43:44;96089.25;;;24.72;80.95
48041;BME280;33815;48.386;11.738;2023-09-18T10:46:10;96097.16;;;24.94;81.41
48041;BME280;33815;48.386;11.738;2023-09-18T10:48:39;96115.13;;;24.77;82.92
48041;BME280;33815;48.386;11.738;2023-09-18T10:51:06;96116.06;;;24.60;83.00
48041;BME280;33815;48.386;11.738;2023-09-18T10:53:32;96110.28;;;24.46;82.45
48041;BME280;33815;48.386;11.738;2023-09-18T10:55:57;96115.66;;;24.52;81.46
48041;BME280;33815;48.386;11.738;2023-09-18T10:58:24;96107.38;;;24.48;81.31
48041;BME280;33815;48.386;11.738;2023-09-18T11:00:50;96107.56;;;24.41;83.42
48041;BME280;33815;48.386;11.738;2023-09-18T11:03:17;96117.09;;;24.37;81.43
48041;BME280;33815;48.386;11.738;2023-09-18T11:05:47;96109.13;;;24.15;83.26
48041;BME280;33815;48.386;11.738;2023-09-18T11:08:29;96119.66;;;24.05;84.32
48041;BME280;33815;48.386;11.738;2023-09-18T11:10:55;96110.69;;;23.89;84.82
48041;BME280;33815;48.386;11.738;2023-09-18T11:13:31;96119.31;;;24.01;82.38
48041;BME280;33815;48.386;11.738;2023-09-18T11:16:19;96123.75;;;23.90;81.71
48041;BME280;33815;48.386;11.738;2023-09-18T11:21:24;96131.47;;;23.92;81.44
48041;BME280;33815;48.386;11.738;2023-09-18T11:23:58;96128.63;;;23.82;79.50
48041;BME280;33815;48.386;11.738;2023-09-18T11:26:28;96135.97;;;23.91;80.27
48041;BME280;33815;48.386;11.738;2023-09-18T11:28:54;96106.09;;;24.06;80.10
48041;BME280;33815;48.386;11.738;2023-09-18T11:31:19;96125.59;;;24.12;79.76
48041;BME280;33815;48.386;11.738;2023-09-18T11:33:47;96124.53;;;24.35;77.39
48041;BME280;33815;48.386;11.738;2023-09-18T11:36:33;96125.78;;;24.27;75.98
48041;BME280;33815;48.386;11.738;2023-09-18T11:39:00;96122.25;;;24.22;76.69
48041;BME280;33815;48.386;11.738;2023-09-18T11:41:33;96133.94;;;24.43;75.96
48041;BME280;33815;48.386;11.738;2023-09-18T11:46:45;96137.19;;;24.50;72.48
48041;BME280;33815;48.386;11.738;2023-09-18T11:49:11;96123.34;;;24.48;71.68
48041;BME280;33815;48.386;11.738;2023-09-18T11:51:37;96134.00;;;24.70;71.82
48041;BME280;33815;48.386;11.738;2023-09-18T11:54:03;96136.09;;;24.68;71.45
48041;BME280;33815;48.386;11.738;2023-09-18T11:56:29;96138.16;;;24.61;71.51
48041;BME280;33815;48.386;11.738;2023-09-18T11:58:55;96139.06;;;24.50;71.73
48041;BME280;33815;48.386;11.738;2023-09-18T12:01:21;96142.19;;;24.19;72.39
48041;BME280;33815;48.386;11.738;2023-09-18T12:03:54;96157.38;;;24.19;74.25
48041;BME280;33815;48.386;11.738;2023-09-18T12:06:20;96154.25;;;24.05;74.43
48041;BME280;33815;48.386;11.738;2023-09-18T12:08:46;96141.69;;;23.83;75.16
48041;BME280;33815;48.386;11.738;2023-09-18T12:11:12;96176.47;;;23.76;74.61
48041;BME280;33815;48.386;11.738;2023-09-18T12:13:42;96154.72;;;23.63;71.16
48041;BME280;33815;48.386;11.738;2023-09-18T12:16:08;96166.97;;;23.30;70.41
48041;BME280;33815;48.386;11.738;2023-09-18T12:18:34;96174.69;;;23.14;70.79
48041;BME280;33815;48.386;11.738;2023-09-18T12:21:02;96175.78;;;23.01;71.25
48041;BME280;33815;48.386;11.738;2023-09-18T12:23:36;96183.81;;;22.89;71.54
48041;BME280;33815;48.386;11.738;2023-09-18T12:26:01;96182.28;;;22.65;73.67
48041;BME280;33815;48.386;11.738;2023-09-18T12:28:28;96186.56;;;22.66;76.18
48041;BME280;33815;48.386;11.738;2023-09-18T12:30:54;96198.75;;;22.79;78.37
48041;BME280;33815;48.386;11.738;2023-09-18T12:33:22;96194.97;;;22.74;79.00
48041;BME280;33815;48.386;11.738;2023-09-18T12:35:47;96211.44;;;22.48;80.52
48041;BME280;33815;48.386;11.738;2023-09-18T12:40:40;96236.06;;;21.96;82.96
48041;BME280;33815;48.386;11.738;2023-09-18T12:43:06;96217.13;;;21.68;85.90
48041;BME280;33815;48.386;11.738;2023-09-18T12:45:32;96239.53;;;21.84;86.13
48041;BME280;33815;48.386;11.738;2023-09-18T12:47:59;96238.81;;;21.53;86.58